Time;durP1;ratioP1;P1;durP2;ratioP2;P2;SDS_P1;SDS_P2;PMS_P1;PMS_P2;Temp;Humidity;BMP_temperature;BMP_pressure;BME280_temperature;BME280_humidity;BME280_pressure;Samples;Min_cycle;Max_cycle;Signal;HPM_P1;HPM_P2
2021/04/11 00:00:35;;;;;;;13.20;6.47;;;6.30;99.90;;;;;;5102634;28;20006;-63
2021/04/11 00:03:01;;;;;;;12.70;6.43;;;6.30;99.90;;;;;;5102612;28;20082;-63
2021/04/11 00:05:31;;;;;;;11.65;6.90;;;6.20;99.90;;;;;;5102916;28;20559;-63
2021/04/11 00:07:58;;;;;;;14.93;6.40;;;6.20;99.90;;;;;;5101917;28;20043;-62
2021/04/11 00:10:27;;;;;;;12.43;7.43;;;6.20;99.90;;;;;;5102966;28;20531;-60
2021/04/11 00:12:53;;;;;;;10.13;6.53;;;6.20;99.90;;;;;;5101985;28;20054;-59
2021/04/11 00:15:18;;;;;;;;;;;6.20;99.90;;;;;;5092116;28;20036;-64
2021/04/11 00:17:44;;;;;;;20.77;9.05;;;6.20;99.90;;;;;;5087428;28;19955;-60
2021/04/11 00:20:10;;;;;;;;;;;6.20;99.90;;;;;;5089235;28;20508;-62
2021/04/11 00:22:36;;;;;;;8.03;4.67;;;6.20;99.90;;;;;;5087654;28;19923;-61
2021/04/11 00:25:04;;;;;;;;;;;6.20;99.90;;;;;;5088723;28;20400;-61
2021/04/11 00:27:30;;;;;;;11.10;6.20;;;6.30;99.90;;;;;;5080786;28;19916;-63
2021/04/11 00:29:55;;;;;;;;;;;6.30;99.90;;;;;;5088732;28;20385;-59
2021/04/11 00:32:21;;;;;;;9.75;5.25;;;6.40;99.90;;;;;;5087068;28;20411;-59
2021/04/11 00:34:47;;;;;;;11.05;6.05;;;6.70;99.90;;;;;;5088798;28;20406;-61
2021/04/11 00:37:12;;;;;;;11.73;6.40;;;6.70;99.90;;;;;;5088053;28;20036;-61
2021/04/11 00:39:38;;;;;;;;;;;6.70;99.90;;;;;;5088659;28;20123;-56
2021/04/11 00:42:12;;;;;;;9.15;5.72;;;6.70;99.90;;;;;;5087944;28;20456;-58
2021/04/11 00:44:38;;;;;;;12.48;5.85;;;6.80;99.90;;;;;;5087331;28;20071;-56
2021/04/11 00:47:05;;;;;;;;;;;6.80;99.90;;;;;;5083970;28;20566;-61
2021/04/11 00:49:31;;;;;;;;;;;6.90;99.90;;;;;;5080516;28;19916;-62
2021/04/11 00:51:57;;;;;;;10.00;6.22;;;6.90;99.90;;;;;;5086813;28;19920;-57
2021/04/11 00:54:22;;;;;;;16.67;6.57;;;6.90;99.90;;;;;;5087734;28;20456;-53
2021/04/11 00:56:48;;;;;;;;;;;7.00;99.90;;;;;;5083700;28;20132;-52
2021/04/11 00:59:15;;;;;;;10.20;5.65;;;7.00;99.90;;;;;;5084986;28;20268;-57
2021/04/11 01:01:41;;;;;;;10.30;6.30;;;7.00;99.90;;;;;;5085832;28;20044;-59
2021/04/11 01:04:10;;;;;;;;;;;7.00;99.90;;;;;;5088443;28;20599;-55
2021/04/11 01:06:41;;;;;;;11.68;5.25;;;7.00;99.90;;;;;;5087522;28;19916;-61
2021/04/11 01:09:25;;;;;;;10.88;6.05;;;6.90;99.90;;;;;;5087925;28;20036;-54
2021/04/11 01:11:53;;;;;;;11.35;6.75;;;6.90;99.90;;;;;;5086464;28;20051;-58
2021/04/11 01:14:20;;;;;;;13.00;6.07;;;6.90;99.90;;;;;;5087965;28;20074;-58
2021/04/11 01:16:45;;;;;;;14.13;6.63;;;7.00;99.90;;;;;;5084632;28;20046;-50
2021/04/11 01:19:14;;;;;;;;;;;6.90;99.90;;;;;;5088097;28;20123;-55
2021/04/11 01:21:52;;;;;;;12.93;7.18;;;6.90;99.90;;;;;;5087442;28;19997;-56
2021/04/11 01:24:38;;;;;;;12.45;6.78;;;6.90;99.90;;;;;;5085907;28;20040;-59
2021/04/11 01:27:09;;;;;;;11.53;6.67;;;7.00;99.90;;;;;;5079774;28;20795;-61
2021/04/11 01:29:35;;;;;;;11.00;5.97;;;6.90;99.90;;;;;;5079634;28;20131;-59
2021/04/11 01:32:02;;;;;;;10.60;6.95;;;6.90;99.90;;;;;;5085576;28;20040;-62
2021/04/11 01:34:28;;;;;;;15.38;6.75;;;6.90;99.90;;;;;;5088215;28;20048;-58
2021/04/11 01:36:54;;;;;;;;;;;6.90;99.90;;;;;;5087441;28;20043;-58
2021/04/11 01:39:24;;;;;;;12.48;6.43;;;6.90;99.90;;;;;;5084212;28;19976;-56
2021/04/11 01:41:53;;;;;;;10.65;6.05;;;7.00;99.90;;;;;;5086221;28;20475;-58
2021/04/11 01:44:25;;;;;;;10.38;6.57;;;7.00;99.90;;;;;;5087607;28;20094;-59
2021/04/11 01:46:52;;;;;;;11.63;6.10;;;7.00;99.90;;;;;;5085820;28;20051;-56
2021/04/11 01:49:20;;;;;;;10.20;5.65;;;7.00;99.90;;;;;;5087714;28;20078;-59
2021/04/11 01:51:49;;;;;;;11.05;4.95;;;7.10;99.90;;;;;;5086353;28;20040;-59
2021/04/11 01:54:23;;;;;;;10.88;4.43;;;7.10;99.90;;;;;;5086601;28;20055;-59
2021/04/11 01:56:49;;;;;;;6.85;4.53;;;7.20;99.90;;;;;;5073941;28;20566;-54
2021/04/11 01:59:16;;;;;;;;;;;7.10;99.90;;;;;;5085506;28;20032;-57
2021/04/11 02:01:42;;;;;;;;;;;7.10;99.90;;;;;;5085733;28;20394;-60
2021/04/11 02:04:10;;;;;;;10.93;4.10;;;7.10;99.90;;;;;;5087145;28;19979;-56
2021/04/11 02:06:43;;;;;;;8.30;3.83;;;7.10;99.90;;;;;;5086109;28;20046;-60
2021/04/11 02:09:23;;;;;;;11.60;3.72;;;7.10;99.90;;;;;;5086461;28;20565;-56
2021/04/11 02:11:49;;;;;;;6.88;3.42;;;7.00;99.90;;;;;;5068636;28;20040;-59
2021/04/11 02:14:16;;;;;;;4.85;3.30;;;7.00;99.90;;;;;;5086330;28;20473;-61
2021/04/11 02:16:42;;;;;;;7.38;2.88;;;7.00;99.90;;;;;;5085469;28;20082;-59
2021/04/11 02:19:12;;;;;;;5.75;2.40;;;7.00;99.90;;;;;;5086662;28;20047;-58
2021/04/11 02:21:40;;;;;;;3.28;1.90;;;7.00;99.90;;;;;;5085957;28;20040;-59
2021/04/11 02:24:08;;;;;;;2.97;1.80;;;7.00;99.90;;;;;;5085837;28;20109;-57
2021/04/11 02:26:35;;;;;;;2.63;1.63;;;7.10;99.90;;;;;;5082158;28;20488;-60
2021/04/11 02:29:05;;;;;;;4.07;1.58;;;7.10;99.90;;;;;;5082209;28;20451;-60
2021/04/11 02:31:31;;;;;;;6.25;1.85;;;7.10;99.90;;;;;;5062837;28;20045;-59
2021/04/11 02:34:04;;;;;;;3.33;2.10;;;7.10;99.90;;;;;;5065819;28;20130;-59
2021/04/11 02:36:37;;;;;;;2.90;1.40;;;7.10;99.90;;;;;;5065802;28;20512;-59
2021/04/11 02:39:11;;;;;;;3.13;1.88;;;7.20;99.90;;;;;;5065791;28;20040;-54
2021/04/11 02:41:38;;;;;;;3.83;1.60;;;7.20;99.90;;;;;;5066002;28;20036;-59
2021/04/11 02:44:04;;;;;;;2.47;2.03;;;7.20;99.90;;;;;;5065564;28;20094;-61
2021/04/11 02:46:33;;;;;;;1.67;1.33;;;7.30;99.90;;;;;;5064589;28;20086;-57
2021/04/11 02:48:59;;;;;;;4.05;1.33;;;7.30;99.90;;;;;;5068224;28;20067;-58
2021/04/11 02:51:27;;;;;;;;;;;7.20;99.90;;;;;;5085487;28;20559;-55
2021/04/11 02:53:55;;;;;;;2.75;1.38;;;7.20;99.90;;;;;;5086200;28;19966;-55
2021/04/11 02:56:21;;;;;;;3.22;1.40;;;7.20;99.90;;;;;;5084680;28;20040;-56
2021/04/11 02:58:47;;;;;;;;;;;7.10;99.90;;;;;;5079726;28;20040;-60
2021/04/11 03:01:16;;;;;;;4.07;1.40;;;7.10;99.90;;;;;;5085495;28;20023;-62
2021/04/11 03:03:42;;;;;;;3.10;1.52;;;7.20;99.90;;;;;;5085527;28;20044;-60
2021/04/11 03:06:17;;;;;;;;;;;7.20;99.90;;;;;;5086791;28;20062;-60
2021/04/11 03:08:47;;;;;;;2.78;1.58;;;7.30;99.90;;;;;;5085611;28;19920;-61
2021/04/11 03:11:31;;;;;;;4.35;1.60;;;7.30;99.90;;;;;;5085381;28;20048;-61
2021/04/11 03:13:59;;;;;;;2.88;1.60;;;7.30;99.90;;;;;;5066222;28;20048;-60
2021/04/11 03:16:26;;;;;;;3.55;1.85;;;7.30;99.90;;;;;;5082239;28;20040;-58
2021/04/11 03:18:56;;;;;;;2.28;1.35;;;7.30;99.90;;;;;;5086229;28;20032;-57
2021/04/11 03:21:23;;;;;;;2.45;1.70;;;7.20;99.90;;;;;;5085150;28;20804;-61
2021/04/11 03:23:49;;;;;;;4.55;2.30;;;7.20;99.90;;;;;;5085997;28;20047;-57
2021/04/11 03:26:22;;;;;;;7.15;2.20;;;7.20;99.90;;;;;;5086204;28;20032;-56
2021/04/11 03:28:53;;;;;;;4.72;2.17;;;7.20;99.90;;;;;;5080061;28;20044;-60
2021/04/11 03:31:31;;;;;;;3.20;2.15;;;7.20;99.90;;;;;;5085249;28;20127;-56
2021/04/11 03:34:01;;;;;;;4.93;2.15;;;7.30;99.90;;;;;;5085451;28;20504;-58
2021/04/11 03:36:27;;;;;;;2.78;1.90;;;7.20;99.90;;;;;;5085209;28;20127;-59
2021/04/11 03:38:53;;;;;;;4.55;2.17;;;7.10;99.90;;;;;;5081838;28;20032;-57
2021/04/11 03:41:19;;;;;;;;;;;7.10;99.90;;;;;;5085764;28;20040;-50
2021/04/11 03:43:57;;;;;;;3.42;2.35;;;7.10;99.90;;;;;;5086464;28;20395;-54
2021/04/11 03:46:41;;;;;;;5.82;2.40;;;7.20;99.90;;;;;;5084558;28;20040;-57
2021/04/11 03:49:52;;;;;;;4.95;2.70;;;7.30;99.90;;;;;;5085810;28;20047;-60
2021/04/11 03:52:30;;;;;;;4.88;3.17;;;7.20;99.90;;;;;;5005887;28;20065;-61
2021/04/11 03:54:59;;;;;;;5.93;3.35;;;7.20;99.90;;;;;;5085304;28;20182;-59
2021/04/11 03:57:29;;;;;;;5.75;3.88;;;7.20;99.90;;;;;;5074600;28;20062;-57
2021/04/11 04:00:16;;;;;;;7.40;3.78;;;7.20;99.90;;;;;;5088120;28;20061;-60
2021/04/11 04:02:44;;;;;;;8.35;3.90;;;7.20;99.90;;;;;;5088352;28;20052;-58
2021/04/11 04:05:16;;;;;;;6.10;4.05;;;7.20;99.90;;;;;;5088738;28;20055;-59
2021/04/11 04:07:55;;;;;;;9.45;4.47;;;7.20;99.90;;;;;;5084527;28;20067;-58
2021/04/11 04:10:25;;;;;;;10.43;5.03;;;7.20;99.90;;;;;;5089126;28;20039;-64
2021/04/11 04:13:17;;;;;;;7.80;4.70;;;7.20;99.90;;;;;;5086172;28;20048;-61
2021/04/11 04:15:53;;;;;;;8.30;4.88;;;7.20;99.90;;;;;;5088387;28;20040;-61
2021/04/11 04:18:24;;;;;;;8.57;4.60;;;7.20;99.90;;;;;;5088640;28;20036;-59
2021/04/11 04:21:25;;;;;;;11.80;5.13;;;7.20;99.90;;;;;;5087786;28;20036;-60
2021/04/11 04:24:29;;;;;;;9.15;5.13;;;7.20;99.90;;;;;;5089277;28;20131;-58
2021/04/11 04:27:07;;;;;;;10.90;6.30;;;7.30;99.90;;;;;;5080028;22;20111;-72
2021/04/11 04:29:41;;;;;;;11.75;6.07;;;7.30;99.90;;;;;;5057261;28;20028;-70
2021/04/11 04:32:48;;;;;;;12.38;6.57;;;7.30;99.90;;;;;;5071932;28;20212;-71
2021/04/11 04:35:33;;;;;;;14.77;5.93;;;7.30;99.90;;;;;;5065208;28;20040;-74
2021/04/11 04:38:15;;;;;;;9.35;5.82;;;7.40;99.90;;;;;;5065809;28;20033;-72
2021/04/11 04:40:50;;;;;;;8.07;5.38;;;7.40;99.90;;;;;;5061343;28;20036;-71
2021/04/11 04:43:21;;;;;;;11.05;6.15;;;7.40;99.90;;;;;;5052517;28;20044;-73
2021/04/11 04:46:10;;;;;;;9.20;6.00;;;7.40;99.90;;;;;;5053484;28;20072;-72
2021/04/11 04:48:45;;;;;;;12.02;6.05;;;7.40;99.90;;;;;;5053519;28;20537;-73
2021/04/11 04:52:03;;;;;;;9.35;6.30;;;7.40;99.90;;;;;;5055280;28;20035;-71
2021/04/11 04:54:33;;;;;;;9.40;6.18;;;7.30;99.90;;;;;;4972779;28;20078;-70
2021/04/11 04:57:10;;;;;;;10.50;6.60;;;7.40;99.90;;;;;;4988962;28;20070;-72
2021/04/11 04:59:49;;;;;;;;;;;7.30;99.90;;;;;;5026037;28;20502;-71
2021/04/11 05:02:16;;;;;;;9.95;6.20;;;7.30;99.90;;;;;;5070028;28;19949;-73
2021/04/11 05:04:51;;;;;;;14.27;6.57;;;7.30;99.90;;;;;;5055266;28;20036;-71
2021/04/11 05:07:21;;;;;;;8.60;5.82;;;7.30;99.90;;;;;;5071831;28;20040;-71
2021/04/11 05:10:00;;;;;;;9.30;6.03;;;7.30;99.90;;;;;;5053146;28;20055;-70
2021/04/11 05:12:38;;;;;;;10.20;6.00;;;7.40;99.90;;;;;;5052868;28;20037;-74
2021/04/11 05:15:10;;;;;;;10.13;5.93;;;7.40;99.90;;;;;;5053216;28;20072;-70
2021/04/11 05:17:39;;;;;;;14.70;6.32;;;7.50;99.90;;;;;;5044283;28;20040;-73
2021/04/11 05:20:10;;;;;;;12.48;5.15;;;7.50;99.90;;;;;;5053074;28;20393;-73
2021/04/11 05:22:48;;;;;;;12.80;6.80;;;7.50;99.90;;;;;;5070606;28;20512;-70
2021/04/11 05:25:43;;;;;;;11.70;5.93;;;7.50;99.90;;;;;;5052293;28;20045;-70
2021/04/11 05:28:44;;;;;;;7.85;5.60;;;7.50;99.90;;;;;;5044823;28;20080;-71
2021/04/11 05:31:16;;;;;;;15.20;7.28;;;7.50;99.90;;;;;;5070207;28;20036;-74
2021/04/11 05:33:44;;;;;;;9.88;6.20;;;7.50;99.90;;;;;;5052754;28;20056;-71
2021/04/11 05:36:44;;;;;;;10.15;6.15;;;7.50;99.90;;;;;;5052264;28;20040;-71
2021/04/11 05:39:27;;;;;;;13.38;6.88;;;7.50;99.90;;;;;;5070096;28;20040;-72
2021/04/11 05:42:33;;;;;;;10.55;6.43;;;7.50;99.90;;;;;;5051531;28;20123;-73
2021/04/11 05:45:05;;;;;;;14.25;7.00;;;7.60;99.90;;;;;;5037835;28;20155;-70
2021/04/11 05:48:08;;;;;;;9.30;5.60;;;7.60;99.90;;;;;;5050867;28;20048;-71
2021/04/11 05:50:46;;;;;;;9.57;6.10;;;7.70;99.90;;;;;;5051962;28;20044;-71
2021/04/11 05:53:29;;;;;;;13.32;5.90;;;7.60;99.90;;;;;;5051339;28;20040;-70
2021/04/11 05:56:00;;;;;;;9.15;5.93;;;7.70;99.90;;;;;;5051676;28;20085;-73
2021/04/11 05:58:31;;;;;;;7.50;5.50;;;7.80;99.90;;;;;;5051759;28;20068;-72
2021/04/11 06:01:07;;;;;;;9.93;6.60;;;7.80;99.90;;;;;;5050481;28;20529;-71
2021/04/11 06:03:36;;;;;;;9.07;4.88;;;7.80;99.90;;;;;;5051937;28;20489;-73
2021/04/11 06:06:09;;;;;;;9.10;6.18;;;7.80;99.90;;;;;;5052089;28;20068;-70
2021/04/11 06:08:48;;;;;;;10.70;5.82;;;7.80;99.90;;;;;;5051536;28;20131;-71
2021/04/11 06:11:54;;;;;;;7.30;5.15;;;7.80;99.90;;;;;;5051402;28;20074;-71
2021/04/11 06:14:47;;;;;;;8.23;5.50;;;7.80;99.90;;;;;;5032512;28;20037;-74
2021/04/11 06:17:13;;;;;;;7.90;5.50;;;7.80;99.90;;;;;;5050997;28;20051;-72
2021/04/11 06:19:44;;;;;;;9.95;5.20;;;7.70;99.90;;;;;;5051301;28;20045;-71
2021/04/11 06:22:39;;;;;;;8.10;5.75;;;7.70;99.90;;;;;;5068841;28;20040;-71
2021/04/11 06:25:33;;;;;;;8.70;5.25;;;7.70;99.90;;;;;;5049290;28;20056;-73
2021/04/11 06:28:24;;;;;;;10.48;5.43;;;7.70;99.90;;;;;;5050671;28;20074;-74
2021/04/11 06:30:56;;;;;;;6.43;4.78;;;7.70;99.90;;;;;;5044720;28;20041;-72
2021/04/11 06:33:38;;;;;;;9.13;5.38;;;7.70;99.90;;;;;;5050420;28;20067;-71
2021/04/11 06:36:09;;;;;;;9.23;5.22;;;7.70;99.90;;;;;;5051708;28;20098;-71
2021/04/11 06:38:46;;;;;;;8.43;5.30;;;7.70;99.90;;;;;;5051182;28;20045;-73
2021/04/11 06:41:15;;;;;;;;;;;7.70;99.90;;;;;;5051505;28;20115;-73
2021/04/11 06:44:11;;;;;;;7.75;4.80;;;7.70;99.90;;;;;;5051090;28;19928;-71
2021/04/11 06:47:12;;;;;;;8.73;4.60;;;7.80;99.90;;;;;;5050718;28;20039;-72
2021/04/11 06:50:16;;;;;;;7.07;4.28;;;7.80;99.90;;;;;;5039633;28;20552;-70
2021/04/11 06:52:48;;;;;;;9.93;5.70;;;7.80;99.90;;;;;;5052178;28;20363;-73
2021/04/11 06:55:13;;;;;;;8.98;5.32;;;7.80;99.90;;;;;;5052269;28;20045;-74
2021/04/11 06:57:50;;;;;;;;;;;7.90;99.90;;;;;;5070952;28;20051;-72
2021/04/11 07:00:40;;;;;;;10.02;5.90;;;7.90;99.90;;;;;;5050574;28;19966;-69
2021/04/11 07:03:37;;;;;;;6.88;5.35;;;8.00;99.90;;;;;;5050913;28;20040;-74
2021/04/11 07:06:37;;;;;;;10.68;5.88;;;8.10;99.90;;;;;;5051364;28;20085;-73
2021/04/11 07:09:31;;;;;;;7.75;5.22;;;8.20;99.90;;;;;;5049662;28;20492;-72
2021/04/11 07:12:22;;;;;;;9.88;4.75;;;8.30;99.90;;;;;;5050442;28;20119;-72
2021/04/11 07:14:54;;;;;;;8.05;5.22;;;8.40;99.90;;;;;;5050399;28;20520;-71
2021/04/11 07:17:51;;;;;;;7.72;5.40;;;8.40;99.90;;;;;;5050247;28;20090;-71
2021/04/11 07:20:51;;;;;;;5.97;4.55;;;8.40;99.90;;;;;;5048431;28;20055;-73
2021/04/11 07:23:49;;;;;;;6.53;4.95;;;8.40;99.90;;;;;;5047322;28;20101;-74
2021/04/11 07:26:38;;;;;;;9.23;5.70;;;8.40;99.90;;;;;;5049670;28;20029;-72
2021/04/11 07:29:22;;;;;;;14.32;7.55;;;8.50;99.90;;;;;;5072299;28;20112;-74
2021/04/11 07:32:07;;;;;;;8.95;6.95;;;8.50;99.90;;;;;;5050693;28;20048;-69
2021/04/11 07:34:41;;;;;;;15.07;8.70;;;8.50;99.90;;;;;;5072525;28;20040;-71
2021/04/11 07:37:14;;;;;;;15.98;9.27;;;8.50;99.90;;;;;;5057644;28;20421;-70
2021/04/11 07:39:53;;;;;;;18.67;10.95;;;8.50;99.90;;;;;;5054479;28;20123;-73
2021/04/11 07:42:50;;;;;;;14.32;9.20;;;8.50;99.90;;;;;;5054012;28;20125;-72
2021/04/11 07:45:29;;;;;;;9.80;7.25;;;8.50;99.90;;;;;;5053181;28;20091;-72
2021/04/11 07:48:13;;;;;;;11.95;8.00;;;8.50;99.90;;;;;;5054151;28;20533;-74
2021/04/11 07:50:49;;;;;;;12.13;8.02;;;8.40;99.90;;;;;;5071744;28;20036;-73
2021/04/11 07:53:48;;;;;;;11.23;8.50;;;8.40;99.90;;;;;;5053987;28;20047;-71
2021/04/11 07:56:29;;;;;;;14.25;7.40;;;8.30;99.90;;;;;;5053948;28;20045;-73
2021/04/11 07:59:33;;;;;;;13.63;8.00;;;8.30;99.90;;;;;;5053371;28;20048;-73
2021/04/11 08:02:16;;;;;;;11.75;9.10;;;8.30;99.90;;;;;;5033217;28;20106;-72
2021/04/11 08:05:00;;;;;;;11.80;7.65;;;8.30;99.90;;;;;;5034277;28;20048;-72
2021/04/11 08:07:31;;;;;;;10.73;6.43;;;8.30;99.90;;;;;;5051776;28;20045;-71
2021/04/11 08:10:47;;;;;;;8.75;5.28;;;8.40;99.90;;;;;;5044690;28;20071;-71
2021/04/11 08:13:38;;;;;;;8.90;6.15;;;8.50;99.90;;;;;;5003039;28;20103;-72
2021/04/11 08:16:30;;;;;;;18.52;11.90;;;8.50;99.90;;;;;;5051095;28;20037;-70
2021/04/11 08:19:31;;;;;;;11.48;8.27;;;8.60;99.90;;;;;;5033909;28;20112;-73
2021/04/11 08:22:12;;;;;;;7.57;5.25;;;8.70;99.90;;;;;;5032808;28;20040;-68
2021/04/11 08:24:56;;;;;;;8.13;5.18;;;8.70;99.90;;;;;;5052577;28;20108;-73
2021/04/11 08:27:31;;;;;;;6.80;5.03;;;8.60;99.90;;;;;;5044411;28;20040;-72
2021/04/11 08:30:20;;;;;;;6.97;3.90;;;8.40;99.90;;;;;;5053669;28;20393;-72
2021/04/11 08:32:48;;;;;;;1.92;1.30;;;8.20;99.90;;;;;;5055156;28;20430;-71
2021/04/11 08:35:35;;;;;;;1.67;1.10;;;8.10;99.90;;;;;;5053607;28;20093;-71
2021/04/11 08:38:14;;;;;;;0.60;0.50;;;8.20;99.90;;;;;;5054105;28;20040;-71
2021/04/11 08:40:53;;;;;;;0.40;0.40;;;8.20;99.90;;;;;;5071763;28;20045;-72
2021/04/11 08:43:50;;;;;;;0.35;0.35;;;8.20;99.90;;;;;;5053226;28;20392;-71
2021/04/11 08:46:41;;;;;;;5.38;1.70;;;8.30;99.90;;;;;;5055439;28;20063;-73
2021/04/11 08:49:35;;;;;;;4.30;2.78;;;8.30;99.90;;;;;;5041912;28;20044;-70
2021/04/11 08:52:12;;;;;;;3.10;1.88;;;8.50;99.90;;;;;;5052775;28;20044;-73
2021/04/11 08:54:56;;;;;;;2.28;1.00;;;8.60;99.90;;;;;;5053567;28;20401;-73
2021/04/11 08:57:50;;;;;;;1.92;1.50;;;8.70;99.90;;;;;;5052860;28;20815;-71
2021/04/11 09:00:29;;;;;;;0.55;0.40;;;8.80;99.90;;;;;;5052426;28;20040;-70
2021/04/11 09:03:33;;;;;;;0.30;0.20;;;9.00;99.90;;;;;;5052257;28;20094;-74
2021/04/11 09:06:31;;;;;;;0.20;0.20;;;9.00;99.90;;;;;;5053170;28;20090;-74
2021/04/11 09:09:22;;;;;;;0.22;0.22;;;9.00;99.90;;;;;;5053076;28;20123;-71
2021/04/11 09:12:04;;;;;;;1.48;0.40;;;9.00;99.90;;;;;;5052450;28;20123;-72
2021/04/11 09:14:49;;;;;;;0.60;0.60;;;9.00;99.90;;;;;;5052165;28;20052;-72
2021/04/11 09:17:49;;;;;;;0.30;0.30;;;9.00;99.90;;;;;;5050837;28;20127;-73
2021/04/11 09:20:34;;;;;;;2.40;0.30;;;9.00;99.90;;;;;;5052412;28;20068;-72
2021/04/11 09:23:32;;;;;;;0.30;0.30;;;9.00;99.90;;;;;;5070431;28;20054;-74
2021/04/11 09:26:22;;;;;;;0.25;0.20;;;8.90;99.90;;;;;;5027022;28;20051;-73
2021/04/11 09:29:11;;;;;;;0.43;0.30;;;8.80;99.90;;;;;;5034947;28;20048;-71
2021/04/11 09:31:48;;;;;;;0.57;0.20;;;8.80;99.90;;;;;;5041776;28;20048;-74
2021/04/11 09:34:45;;;;;;;1.45;0.38;;;8.80;99.90;;;;;;5043544;28;20040;-73
2021/04/11 09:37:23;;;;;;;2.90;2.05;;;8.80;99.90;;;;;;5049980;28;20101;-73
2021/04/11 09:40:11;;;;;;;4.57;2.92;;;8.90;99.90;;;;;;5046524;28;20032;-74
2021/04/11 09:42:46;;;;;;;27.60;17.15;;;8.90;99.90;;;;;;5060226;28;20449;-74
2021/04/11 09:45:54;;;;;;;12.98;8.48;;;9.00;99.90;;;;;;5068969;28;20102;-74
2021/04/11 09:48:42;;;;;;;4.30;1.37;;;9.00;99.90;;;;;;4985208;28;20192;-74
2021/04/11 09:51:35;;;;;;;2.03;1.05;;;8.90;99.90;;;;;;5038405;28;20083;-74
2021/04/11 09:54:35;;;;;;;1.70;1.20;;;8.70;99.90;;;;;;5040366;28;20112;-72
2021/04/11 09:57:07;;;;;;;1.50;1.40;;;8.50;99.90;;;;;;5047542;28;20040;-73
2021/04/11 09:59:33;;;;;;;1.83;1.58;;;8.40;99.90;;;;;;5061260;28;20684;-73
2021/04/11 10:02:31;;;;;;;;;;;8.30;99.90;;;;;;5069004;28;20041;-71
2021/04/11 10:05:25;;;;;;;2.13;1.92;;;8.10;99.90;;;;;;5039629;28;19978;-73
2021/04/11 10:08:16;;;;;;;3.85;3.20;;;8.00;99.90;;;;;;5052779;28;20051;-72
2021/04/11 10:11:08;;;;;;;5.25;3.58;;;7.70;99.90;;;;;;5053756;28;20052;-74
2021/04/11 10:13:49;;;;;;;4.45;3.63;;;7.40;99.90;;;;;;5070753;28;20071;-69
2021/04/11 10:16:24;;;;;;;5.40;3.80;;;7.30;99.90;;;;;;5069181;28;20124;-72
2021/04/11 10:19:14;;;;;;;6.50;4.97;;;7.10;99.90;;;;;;5052700;28;20040;-70
2021/04/11 10:21:55;;;;;;;6.78;4.88;;;7.00;99.90;;;;;;5051317;28;20735;-71
2021/04/11 10:24:49;;;;;;;9.10;6.43;;;6.80;99.90;;;;;;5052255;28;20040;-74
2021/04/11 10:27:39;;;;;;;8.15;5.70;;;6.60;99.90;;;;;;5051241;28;20032;-71
2021/04/11 10:30:08;;;;;;;7.53;5.57;;;6.40;99.90;;;;;;5069481;28;20036;-73
2021/04/11 10:32:50;;;;;;;8.40;5.63;;;6.40;99.90;;;;;;5068157;28;20040;-71
2021/04/11 10:35:19;;;;;;;7.18;5.38;;;6.30;99.90;;;;;;5068930;28;20588;-73
2021/04/11 10:38:03;;;;;;;6.13;4.70;;;6.20;99.90;;;;;;5051565;28;20625;-72
2021/04/11 10:40:51;;;;;;;8.05;5.88;;;6.20;99.90;;;;;;5058655;28;20082;-73
2021/04/11 10:43:29;;;;;;;8.05;5.60;;;6.20;99.90;;;;;;5068443;28;20041;-74
2021/04/11 10:46:10;;;;;;;10.85;7.30;;;6.20;99.90;;;;;;5050019;28;20040;-72
2021/04/11 10:49:06;;;;;;;8.88;6.30;;;6.10;99.90;;;;;;5051512;28;20036;-74
2021/04/11 10:51:50;;;;;;;7.50;4.83;;;6.10;99.90;;;;;;5068188;28;20041;-74
2021/04/11 10:54:55;;;;;;;6.43;4.30;;;6.20;99.90;;;;;;5044829;28;20048;-71
2021/04/11 10:57:44;;;;;;;6.13;4.35;;;6.30;99.90;;;;;;5050435;28;20043;-75
2021/04/11 11:00:37;;;;;;;6.80;4.38;;;6.30;99.90;;;;;;5049775;28;20049;-72
2021/04/11 11:03:28;;;;;;;4.75;3.42;;;6.30;99.90;;;;;;5054352;28;20048;-74
2021/04/11 11:06:34;;;;;;;3.78;2.65;;;6.10;99.90;;;;;;5054122;28;20037;-75
2021/04/11 11:09:37;;;;;;;3.95;2.55;;;6.10;99.90;;;;;;5020732;28;20044;-74
2021/04/11 11:12:29;;;;;;;4.65;3.28;;;6.10;99.90;;;;;;5068974;28;20078;-72
2021/04/11 11:15:07;;;;;;;4.00;3.15;;;5.80;99.90;;;;;;5055925;28;20040;-73
2021/04/11 11:18:11;;;;;;;3.95;2.95;;;5.80;99.90;;;;;;5065026;28;20043;-71
2021/04/11 11:20:47;;;;;;;4.05;2.75;;;5.60;99.90;;;;;;5043061;28;20040;-72
2021/04/11 11:24:01;;;;;;;3.38;2.65;;;5.70;99.90;;;;;;5067830;28;20084;-72
2021/04/11 11:26:52;;;;;;;3.90;2.10;;;5.70;99.90;;;;;;4993644;28;20096;-70
2021/04/11 11:29:50;;;;;;;5.22;3.72;;;5.60;99.90;;;;;;5031292;28;20537;-72
2021/04/11 11:32:38;;;;;;;4.03;3.05;;;5.80;99.90;;;;;;5049944;28;20041;-73
2021/04/11 11:35:13;;;;;;;2.53;1.60;;;5.90;99.90;;;;;;5051612;28;20040;-73
2021/04/11 11:37:51;;;;;;;2.28;1.60;;;5.80;99.90;;;;;;5050570;28;20040;-73
2021/04/11 11:40:35;;;;;;;2.40;1.50;;;5.80;99.90;;;;;;5050599;28;20048;-72
2021/04/11 11:43:18;;;;;;;2.22;1.20;;;5.80;99.90;;;;;;5050502;28;20049;-73
2021/04/11 11:46:04;;;;;;;1.35;1.02;;;5.60;99.90;;;;;;5050182;28;20072;-73
2021/04/11 11:48:48;;;;;;;1.08;0.93;;;5.50;99.90;;;;;;5050863;28;20564;-73
2021/04/11 11:51:32;;;;;;;2.50;0.95;;;5.30;99.90;;;;;;5049906;28;20032;-72
2021/04/11 11:54:17;;;;;;;1.52;1.05;;;5.40;99.90;;;;;;5052862;28;20048;-73
2021/04/11 11:56:57;;;;;;;1.70;1.20;;;5.40;99.90;;;;;;5049967;28;20044;-72
2021/04/11 11:59:45;;;;;;;2.75;1.10;;;5.40;99.90;;;;;;5050399;28;20037;-74
2021/04/11 12:02:23;;;;;;;2.53;1.27;;;5.40;99.90;;;;;;5066828;28;20094;-70
2021/04/11 12:05:11;;;;;;;1.48;1.05;;;5.30;99.90;;;;;;5049966;28;20481;-72
2021/04/11 12:07:52;;;;;;;1.65;1.17;;;5.40;99.90;;;;;;5050319;28;20066;-74
2021/04/11 12:10:59;;;;;;;1.83;0.82;;;5.10;99.90;;;;;;5050658;28;20040;-71
2021/04/11 12:13:41;;;;;;;1.33;0.80;;;5.10;99.90;;;;;;5017512;28;20044;-72
2021/04/11 12:16:18;;;;;;;0.98;0.80;;;5.00;99.90;;;;;;5053281;28;20411;-71
2021/04/11 12:19:10;;;;;;;1.15;0.65;;;5.20;99.90;;;;;;5042053;28;20039;-74
2021/04/11 12:21:52;;;;;;;1.15;0.88;;;5.00;99.90;;;;;;5061885;28;20040;-74
2021/04/11 12:24:24;;;;;;;2.03;1.00;;;4.80;99.90;;;;;;5034284;28;20052;-74
2021/04/11 12:27:03;;;;;;;1.90;1.13;;;4.90;99.90;;;;;;5038732;28;20045;-73
2021/04/11 12:29:32;;;;;;;1.38;0.80;;;4.60;99.90;;;;;;5053317;28;20131;-71
2021/04/11 12:31:59;;;;;;;1.73;0.80;;;4.70;99.90;;;;;;5053215;28;20032;-71
2021/04/11 12:34:51;;;;;;;1.00;0.80;;;4.50;99.90;;;;;;5053716;28;20127;-74
2021/04/11 12:37:49;;;;;;;1.63;0.73;;;4.50;99.90;;;;;;5053916;28;20044;-73
2021/04/11 12:40:25;;;;;;;1.02;0.73;;;4.70;99.90;;;;;;5025152;28;20059;-73
2021/04/11 12:43:25;;;;;;;1.42;0.77;;;4.60;99.90;;;;;;5052968;28;20041;-71
2021/04/11 12:46:05;;;;;;;0.57;0.50;;;4.40;99.90;;;;;;5039389;28;20047;-74
2021/04/11 12:49:17;;;;;;;0.80;0.50;;;4.40;99.90;;;;;;5064267;28;20083;-73
2021/04/11 12:52:09;;;;;;;1.02;0.73;;;4.30;99.90;;;;;;4988635;28;20031;-74
2021/04/11 12:54:42;;;;;;;0.80;0.50;;;4.20;99.90;;;;;;4989137;28;20046;-72
2021/04/11 12:57:34;;;;;;;1.20;0.75;;;4.10;99.90;;;;;;5032077;28;20056;-73
2021/04/11 13:00:14;;;;;;;0.88;0.70;;;4.10;99.90;;;;;;5052719;28;20079;-73
2021/04/11 13:02:56;;;;;;;1.60;0.73;;;4.20;99.90;;;;;;5053001;28;20052;-74
2021/04/11 13:05:47;;;;;;;0.77;0.68;;;4.10;99.90;;;;;;5053004;28;20071;-73
2021/04/11 13:08:46;;;;;;;2.08;1.58;;;4.00;99.90;;;;;;5054097;28;20397;-75
2021/04/11 13:11:26;;;;;;;22.58;14.75;;;4.00;99.90;;;;;;5059657;28;20043;-71
2021/04/11 13:14:01;;;;;;;2.78;2.08;;;4.00;99.90;;;;;;5059503;28;20097;-72
2021/04/11 13:17:02;;;;;;;2.20;1.13;;;4.00;99.90;;;;;;5052531;28;20123;-74
2021/04/11 13:19:43;;;;;;;1.65;0.70;;;3.80;99.90;;;;;;5052714;28;20036;-73
2021/04/11 13:22:18;;;;;;;1.38;0.80;;;3.70;99.90;;;;;;5052329;28;20040;-73
2021/04/11 13:25:02;;;;;;;3.25;1.88;;;3.70;99.90;;;;;;5052130;28;20564;-71
2021/04/11 13:27:40;;;;;;;7.55;4.57;;;3.70;99.90;;;;;;5052058;28;20573;-71
2021/04/11 13:30:14;;;;;;;2.97;1.92;;;3.60;99.90;;;;;;5051549;28;20044;-71
2021/04/11 13:32:55;;;;;;;1.00;0.60;;;3.60;99.90;;;;;;5051519;28;20047;-74
2021/04/11 13:35:29;;;;;;;1.23;0.77;;;3.40;99.90;;;;;;5051844;28;20040;-70
2021/04/11 13:38:01;;;;;;;1.73;0.45;;;3.50;99.90;;;;;;5051734;28;20044;-72
2021/04/11 13:40:30;;;;;;;0.40;0.30;;;3.50;99.90;;;;;;5051668;28;20660;-72
2021/04/11 13:43:08;;;;;;;0.50;0.35;;;3.50;99.90;;;;;;5050804;28;20115;-74
2021/04/11 13:45:53;;;;;;;0.68;0.63;;;3.60;99.90;;;;;;5051253;28;20078;-73
2021/04/11 13:49:04;;;;;;;2.10;1.23;;;3.50;99.90;;;;;;5051512;28;20598;-69
2021/04/11 13:52:05;;;;;;;5.43;1.20;;;3.50;99.90;;;;;;5028342;28;20049;-70
2021/04/11 13:54:44;;;;;;;1.15;0.80;;;3.60;99.90;;;;;;5051211;28;20532;-72
2021/04/11 13:57:14;;;;;;;1.95;0.93;;;3.50;99.90;;;;;;5051129;28;20992;-72
2021/04/11 13:59:46;;;;;;;1.98;1.35;;;3.50;99.90;;;;;;5050986;28;20032;-75
2021/04/11 14:02:21;;;;;;;2.45;1.55;;;3.50;99.90;;;;;;5053191;28;20067;-73
2021/04/11 14:05:03;;;;;;;4.32;2.70;;;3.50;99.90;;;;;;5053082;28;20037;-70
2021/04/11 14:07:37;;;;;;;1.30;0.70;;;3.50;99.90;;;;;;5059126;28;20032;-74